createdAt,value
2023-01-29T00:03:16.568Z,6.57
2023-01-29T00:08:18.170Z,6.68
2023-01-29T00:13:19.868Z,5.60
2023-01-29T00:18:21.714Z,7.07
2023-01-29T00:23:23.981Z,7.10
2023-01-29T00:28:25.612Z,6.00
2023-01-29T00:33:31.214Z,6.75
2023-01-29T00:38:33.944Z,6.50
2023-01-29T00:43:55.049Z,6.72
2023-01-29T00:48:56.621Z,6.80
2023-01-29T00:53:58.427Z,6.78
2023-01-29T00:59:00.187Z,7.18
2023-01-29T01:04:01.848Z,6.95
2023-01-29T01:09:21.972Z,7.47
2023-01-29T01:14:36.195Z,7.50
2023-01-29T01:19:41.592Z,7.18
2023-01-29T01:24:43.387Z,7.50
2023-01-29T01:29:46.507Z,7.65
2023-01-29T01:34:48.124Z,7.40
2023-01-29T01:39:50.560Z,7.05
2023-01-29T01:45:06.404Z,7.03
2023-01-29T01:50:23.898Z,7.40
2023-01-29T01:55:30.166Z,7.22
2023-01-29T02:00:35.484Z,7.30
2023-01-29T02:05:56.797Z,7.07
2023-01-29T02:10:58.861Z,6.85
2023-01-29T02:16:00.550Z,7.13
2023-01-29T02:21:29.308Z,7.50
2023-01-29T02:26:54.158Z,7.00
2023-01-29T02:32:04.940Z,7.60
2023-01-29T02:37:11.579Z,7.00
2023-01-29T02:42:25.419Z,7.05
2023-01-29T02:47:45.489Z,7.22
2023-01-29T02:52:50.800Z,7.10
2023-01-29T02:57:57.955Z,7.00
2023-01-29T03:03:12.509Z,8.45
2023-01-29T03:08:19.574Z,7.45
2023-01-29T03:13:23.713Z,7.28
2023-01-29T03:18:30.573Z,7.40
2023-01-29T03:23:55.393Z,7.45
2023-01-29T03:29:17.777Z,7.07
2023-01-29T03:34:35.209Z,7.65
2023-01-29T03:39:37.259Z,8.02
2023-01-29T03:44:48.921Z,7.72
2023-01-29T03:50:09.571Z,7.35
2023-01-29T03:55:26.879Z,8.02
2023-01-29T04:00:34.712Z,7.60
2023-01-29T04:06:09.849Z,7.40
2023-01-29T04:11:20.729Z,7.53
2023-01-29T04:16:35.316Z,7.90
2023-01-29T04:22:05.341Z,7.50
2023-01-29T04:27:35.094Z,6.80
2023-01-29T04:32:57.375Z,7.47
2023-01-29T04:38:12.826Z,6.80
2023-01-29T04:43:35.269Z,7.47
2023-01-29T04:48:46.004Z,7.95
2023-01-29T04:53:57.927Z,6.60
2023-01-29T04:59:07.934Z,7.40
2023-01-29T05:04:13.705Z,7.85
2023-01-29T05:09:17.518Z,7.82
2023-01-29T05:14:27.429Z,9.18
2023-01-29T05:19:29.081Z,7.68
2023-01-29T05:24:30.880Z,7.65
2023-01-29T05:29:32.612Z,7.07
2023-01-29T05:34:34.405Z,7.60
2023-01-29T05:39:36.056Z,7.78
2023-01-29T05:44:37.664Z,6.80
2023-01-29T05:49:41.534Z,6.60
2023-01-29T05:54:43.176Z,7.95
2023-01-29T05:59:44.799Z,7.60
2023-01-29T06:04:46.452Z,8.40
2023-01-29T06:09:48.118Z,7.38
2023-01-29T06:14:49.943Z,7.75
2023-01-29T06:19:53.517Z,6.43
2023-01-29T06:24:55.108Z,6.63
2023-01-29T06:29:56.756Z,8.07
2023-01-29T06:34:58.710Z,7.10
2023-01-29T06:40:00.270Z,6.85
2023-01-29T06:45:01.861Z,7.43
2023-01-29T06:50:04.049Z,7.40
2023-01-29T06:55:12.164Z,7.10
2023-01-29T07:00:15.465Z,6.60
2023-01-29T07:05:17.621Z,6.75
2023-01-29T07:10:19.394Z,7.57
2023-01-29T07:15:21.436Z,7.50
2023-01-29T07:20:25.010Z,7.35
2023-01-29T07:25:30.469Z,7.78
2023-01-29T07:30:32.391Z,6.88
2023-01-29T07:35:42.704Z,7.10
2023-01-29T07:40:44.265Z,7.32
2023-01-29T07:45:45.909Z,6.18
2023-01-29T07:50:58.438Z,7.65
2023-01-29T07:56:00.068Z,6.85
2023-01-29T08:01:06.452Z,6.55
2023-01-29T08:06:11.561Z,6.93
2023-01-29T08:11:13.143Z,6.90
2023-01-29T08:16:17.582Z,6.38
2023-01-29T08:21:19.176Z,7.05
2023-01-29T08:26:20.978Z,6.70
2023-01-29T08:31:23.605Z,6.35
2023-01-29T08:36:25.249Z,7.03
2023-01-29T08:41:26.903Z,6.53
2023-01-29T08:46:28.687Z,6.70
2023-01-29T08:51:30.338Z,7.07
2023-01-29T08:56:31.971Z,6.80
2023-01-29T09:01:38.083Z,6.63
2023-01-29T09:06:39.729Z,7.00
2023-01-29T09:11:41.359Z,7.03
2023-01-29T09:16:43.180Z,6.75
2023-01-29T09:21:44.804Z,6.68
2023-01-29T09:26:46.459Z,7.20
2023-01-29T09:31:53.717Z,6.75
2023-01-29T09:36:55.397Z,7.43
2023-01-29T09:42:13.175Z,6.97
2023-01-29T09:47:18.378Z,5.97
2023-01-29T09:52:30.266Z,6.38
2023-01-29T09:57:45.463Z,5.60
2023-01-29T10:03:08.192Z,5.78
2023-01-29T10:08:26.857Z,6.18
2023-01-29T10:13:44.931Z,5.28
2023-01-29T10:19:00.987Z,5.18
2023-01-29T10:24:26.001Z,6.63
2023-01-29T10:29:29.864Z,6.35
2023-01-29T10:34:56.300Z,5.82
2023-01-29T10:40:00.046Z,5.07
2023-01-29T10:45:16.887Z,6.18
2023-01-29T10:51:11.908Z,5.85
2023-01-29T10:56:36.180Z,5.68
2023-01-29T11:01:37.753Z,5.60
2023-01-29T11:06:39.368Z,4.82
2023-01-29T11:11:45.122Z,4.43
2023-01-29T11:16:48.490Z,5.53
2023-01-29T11:21:58.691Z,5.82
2023-01-29T11:27:00.529Z,6.70
2023-01-29T11:32:06.655Z,5.90
2023-01-29T11:37:17.005Z,5.07
2023-01-29T11:42:23.183Z,6.13
2023-01-29T11:47:30.464Z,5.32
2023-01-29T11:52:37.658Z,5.38
2023-01-29T11:57:52.785Z,4.63
2023-01-29T12:02:54.318Z,5.03
2023-01-29T12:08:02.119Z,4.90
2023-01-29T12:13:06.607Z,5.25
2023-01-29T12:18:36.306Z,5.80
2023-01-29T12:29:23.375Z,7.20
2023-01-29T12:34:36.019Z,5.75
2023-01-29T12:39:37.666Z,5.32
2023-01-29T12:45:01.423Z,6.88
2023-01-29T12:50:14.729Z,5.18
2023-01-29T12:55:22.132Z,5.60
2023-01-29T13:00:32.215Z,5.97
2023-01-29T13:05:44.318Z,7.22
2023-01-29T13:10:50.921Z,7.10
2023-01-29T13:15:53.512Z,5.63
2023-01-29T13:20:55.835Z,5.88
2023-01-29T13:25:57.645Z,5.47
2023-01-29T13:31:28.962Z,5.47
2023-01-29T13:36:31.436Z,9.35
2023-01-29T13:41:42.565Z,6.00
2023-01-29T13:46:50.507Z,4.85
2023-01-29T13:51:52.197Z,5.18
2023-01-29T13:57:01.715Z,4.45
2023-01-29T14:02:04.520Z,5.13
2023-01-29T14:07:40.148Z,5.13
2023-01-29T14:12:42.660Z,5.65
2023-01-29T14:18:18.766Z,6.60
2023-01-29T14:23:46.654Z,6.38
2023-01-29T14:29:07.788Z,5.78
2023-01-29T14:34:18.252Z,6.20
2023-01-29T14:39:35.422Z,8.65
2023-01-29T14:45:11.257Z,7.78
2023-01-29T14:50:18.955Z,6.82
2023-01-29T14:55:41.607Z,6.60
2023-01-29T15:00:46.387Z,6.80
2023-01-29T15:05:49.381Z,7.25
2023-01-29T15:11:35.034Z,7.88
2023-01-29T15:16:50.809Z,6.97
2023-01-29T15:22:11.459Z,7.50
2023-01-29T15:27:20.188Z,9.70
2023-01-29T15:32:28.700Z,8.07
2023-01-29T15:37:35.217Z,8.45
2023-01-29T15:42:48.704Z,7.50
2023-01-29T15:47:50.961Z,7.00
2023-01-29T15:52:53.651Z,9.05
2023-01-29T15:58:01.124Z,8.20
2023-01-29T16:03:14.791Z,8.32
2023-01-29T16:08:16.915Z,9.10
2023-01-29T16:13:39.534Z,10.38
2023-01-29T16:18:57.806Z,11.68
2023-01-29T16:29:15.089Z,9.30
2023-01-29T16:34:27.830Z,8.95
2023-01-29T16:39:32.612Z,10.27
2023-01-29T16:44:37.587Z,11.98
2023-01-29T16:49:39.117Z,10.20
2023-01-29T16:54:43.479Z,12.88
2023-01-29T16:59:46.250Z,10.45
2023-01-29T17:04:48.101Z,10.82
2023-01-29T17:09:58.833Z,9.52
2023-01-29T17:15:04.510Z,8.70
2023-01-29T17:20:16.867Z,10.50
2023-01-29T17:25:19.132Z,13.52
2023-01-29T17:30:23.739Z,12.45
2023-01-29T17:35:25.397Z,11.32
2023-01-29T17:40:45.590Z,11.05
2023-01-29T17:45:47.611Z,12.98
2023-01-29T17:50:53.377Z,11.38
2023-01-29T17:55:54.944Z,13.80
2023-01-29T18:00:56.615Z,14.35
2023-01-29T18:05:58.289Z,13.40
2023-01-29T18:11:00.480Z,14.15
2023-01-29T18:16:02.442Z,12.85
2023-01-29T18:21:07.993Z,14.00
2023-01-29T18:26:15.338Z,12.43
2023-01-29T18:31:17.019Z,12.60
2023-01-29T18:36:18.619Z,13.57
2023-01-29T18:41:20.269Z,13.40
2023-01-29T18:46:24.306Z,14.32
2023-01-29T18:51:26.021Z,13.63
2023-01-29T18:56:27.778Z,14.10
2023-01-29T19:01:30.300Z,13.10
2023-01-29T19:06:34.422Z,15.27
2023-01-29T19:11:41.960Z,13.55
2023-01-29T19:16:44.173Z,14.55
2023-01-29T19:21:45.860Z,13.63
2023-01-29T19:26:48.507Z,15.70
2023-01-29T19:31:50.183Z,15.80
2023-01-29T19:36:51.875Z,14.90
2023-01-29T19:41:53.413Z,13.93
2023-01-29T19:46:55.059Z,15.00
2023-01-29T19:51:58.940Z,14.07
2023-01-29T19:57:00.565Z,13.48
2023-01-29T20:02:02.392Z,13.60
2023-01-29T20:07:04.055Z,13.23
2023-01-29T20:12:05.719Z,13.07
2023-01-29T20:17:12.172Z,13.70
2023-01-29T20:22:13.882Z,13.80
2023-01-29T20:27:15.477Z,13.90
2023-01-29T20:32:18.717Z,14.48
2023-01-29T20:37:20.458Z,13.35
2023-01-29T20:42:22.280Z,12.20
2023-01-29T20:47:24.022Z,12.88
2023-01-29T20:52:25.699Z,12.32
2023-01-29T20:57:27.844Z,14.23
2023-01-29T21:02:29.568Z,12.10
2023-01-29T21:07:36.690Z,12.40
2023-01-29T21:12:38.532Z,13.38
2023-01-29T21:17:40.342Z,13.60
2023-01-29T21:22:44.093Z,14.35
2023-01-29T21:27:45.898Z,12.77
2023-01-29T21:32:47.545Z,12.73
2023-01-29T21:37:49.189Z,14.07
2023-01-29T21:43:10.185Z,13.95
2023-01-29T21:48:11.861Z,13.55
2023-01-29T21:53:18.475Z,13.50
2023-01-29T21:58:20.746Z,14.38
2023-01-29T22:03:22.667Z,13.88
2023-01-29T22:08:24.387Z,13.48
2023-01-29T22:13:26.297Z,14.63
2023-01-29T22:18:28.049Z,14.43
2023-01-29T22:23:31.009Z,14.00
2023-01-29T22:28:33.085Z,14.90
2023-01-29T22:33:34.686Z,13.43
2023-01-29T22:38:36.520Z,13.00
2023-01-29T22:43:38.538Z,13.30
2023-01-29T22:48:40.280Z,12.80
2023-01-29T22:53:43.307Z,12.93
2023-01-29T22:58:45.054Z,13.15
2023-01-29T23:03:47.310Z,13.77
2023-01-29T23:08:49.542Z,12.70
2023-01-29T23:13:53.726Z,13.20
2023-01-29T23:18:56.375Z,13.40
2023-01-29T23:24:01.340Z,13.70
2023-01-29T23:29:03.974Z,13.80
2023-01-29T23:34:05.639Z,14.18
2023-01-29T23:39:07.809Z,12.98
2023-01-29T23:44:09.817Z,13.13
2023-01-29T23:49:11.513Z,12.45
2023-01-29T23:54:13.375Z,12.80
2023-01-29T23:59:15.519Z,13.85
